createdAt,value
2023-03-25T00:00:33.647Z,9.73
2023-03-25T00:03:24.382Z,10.68
2023-03-25T00:05:54.989Z,12.70
2023-03-25T00:08:26.949Z,15.48
2023-03-25T00:11:01.058Z,13.27
2023-03-25T00:13:32.909Z,14.65
2023-03-25T00:16:07.422Z,12.02
2023-03-25T00:18:38.565Z,12.50
2023-03-25T00:21:10.976Z,14.63
2023-03-25T00:23:43.106Z,17.63
2023-03-25T00:26:13.736Z,14.63
2023-03-25T00:28:45.186Z,13.05
2023-03-25T00:31:17.802Z,14.15
2023-03-25T00:33:50.926Z,12.32
2023-03-25T00:36:21.896Z,15.02
2023-03-25T00:38:52.949Z,11.73
2023-03-25T00:41:27.564Z,17.25
2023-03-25T00:44:00.894Z,15.63
2023-03-25T00:46:35.249Z,15.38
2023-03-25T00:49:06.580Z,15.93
2023-03-25T00:51:53.252Z,11.80
2023-03-25T00:54:25.814Z,13.88
2023-03-25T00:56:56.614Z,14.48
2023-03-25T00:59:27.683Z,16.63
2023-03-25T01:02:00.359Z,15.77
2023-03-25T01:04:31.327Z,12.65
2023-03-25T01:07:03.588Z,18.63
2023-03-25T01:09:34.767Z,17.10
2023-03-25T01:12:05.613Z,17.73
2023-03-25T01:14:36.796Z,15.82
2023-03-25T01:17:09.111Z,17.45
2023-03-25T01:19:40.099Z,15.50
2023-03-25T01:22:11.369Z,16.08
2023-03-25T01:24:42.282Z,15.88
2023-03-25T01:27:12.764Z,13.90
2023-03-25T01:29:43.635Z,13.02
2023-03-25T01:32:15.726Z,13.85
2023-03-25T01:34:48.208Z,15.23
2023-03-25T01:37:19.470Z,11.88
2023-03-25T01:39:50.340Z,15.73
2023-03-25T01:42:20.852Z,12.80
2023-03-25T01:45:20.722Z,12.32
2023-03-25T01:48:01.321Z,16.77
2023-03-25T01:50:33.475Z,14.95
2023-03-25T01:53:06.386Z,13.98
2023-03-25T01:58:17.372Z,14.48
2023-03-25T02:00:50.381Z,12.15
2023-03-25T02:03:24.637Z,12.90
2023-03-25T02:06:03.753Z,14.00
2023-03-25T02:08:37.905Z,16.98
2023-03-25T02:11:10.228Z,13.18
2023-03-25T02:13:42.556Z,14.23
2023-03-25T02:16:31.497Z,15.07
2023-03-25T02:19:33.099Z,14.30
2023-03-25T02:22:38.893Z,13.88
2023-03-25T02:25:46.154Z,15.13
2023-03-25T02:28:29.824Z,15.05
2023-03-25T02:31:48.472Z,10.40
2023-03-25T02:35:00.684Z,13.32
2023-03-25T02:40:58.672Z,14.25
2023-03-25T02:43:36.009Z,13.35
2023-03-25T02:46:11.692Z,14.07
2023-03-25T02:48:52.720Z,13.98
2023-03-25T02:51:28.750Z,15.30
2023-03-25T02:54:05.242Z,17.33
2023-03-25T02:56:40.236Z,14.80
2023-03-25T02:59:14.386Z,12.15
2023-03-25T03:01:45.745Z,12.45
2023-03-25T03:04:16.470Z,12.48
2023-03-25T03:06:48.116Z,12.13
2023-03-25T03:09:37.149Z,12.45
2023-03-25T03:12:33.436Z,12.13
2023-03-25T03:15:17.516Z,12.38
2023-03-25T03:20:39.968Z,17.30
2023-03-25T03:23:21.156Z,13.23
2023-03-25T03:25:55.666Z,12.88
2023-03-25T03:28:34.815Z,12.95
2023-03-25T03:31:10.667Z,11.35
2023-03-25T03:33:50.832Z,14.43
2023-03-25T03:36:26.843Z,12.77
2023-03-25T03:39:04.805Z,13.80
2023-03-25T03:41:41.394Z,9.98
2023-03-25T03:44:18.268Z,14.93
2023-03-25T03:46:55.392Z,15.20
2023-03-25T03:49:30.940Z,12.25
2023-03-25T03:52:09.713Z,11.40
2023-03-25T03:54:47.409Z,11.60
2023-03-25T03:57:26.045Z,13.23
2023-03-25T04:00:05.913Z,12.85
2023-03-25T04:02:51.369Z,14.05
2023-03-25T04:05:24.677Z,12.13
2023-03-25T04:08:00.320Z,11.15
2023-03-25T04:10:39.482Z,14.07
2023-03-25T04:13:15.470Z,15.00
2023-03-25T04:15:48.345Z,17.05
2023-03-25T04:18:23.796Z,17.67
2023-03-25T04:20:54.277Z,15.43
2023-03-25T04:23:25.229Z,17.10
2023-03-25T04:25:55.710Z,16.25
2023-03-25T04:28:26.633Z,14.60
2023-03-25T04:31:00.797Z,18.55
2023-03-25T04:33:32.270Z,16.80
2023-03-25T04:36:03.829Z,15.50
2023-03-25T04:38:35.030Z,12.77
2023-03-25T04:41:07.799Z,14.52
2023-03-25T04:43:39.669Z,23.63
2023-03-25T04:46:15.097Z,14.35
2023-03-25T04:48:47.693Z,16.15
2023-03-25T04:51:18.446Z,15.18
2023-03-25T04:53:49.372Z,14.88
2023-03-25T04:56:20.305Z,13.48
2023-03-25T04:58:51.156Z,12.90
2023-03-25T05:01:30.787Z,13.07
2023-03-25T05:04:06.081Z,13.48
2023-03-25T05:06:38.796Z,12.90
2023-03-25T05:09:11.532Z,13.13
2023-03-25T05:11:42.805Z,13.35
2023-03-25T05:14:16.301Z,13.57
2023-03-25T05:16:49.511Z,11.35
2023-03-25T05:21:52.443Z,14.77
2023-03-25T05:24:23.391Z,14.55
2023-03-25T05:26:55.058Z,12.98
2023-03-25T05:29:25.864Z,10.98
2023-03-25T05:31:57.795Z,14.70
2023-03-25T05:34:30.028Z,11.80
2023-03-25T05:37:00.792Z,12.75
2023-03-25T05:39:31.603Z,12.15
2023-03-25T05:42:03.215Z,11.68
2023-03-25T05:44:34.149Z,12.55
2023-03-25T05:47:06.345Z,14.40
2023-03-25T05:49:37.192Z,16.80
2023-03-25T05:52:09.282Z,12.25
2023-03-25T05:54:42.216Z,17.15
2023-03-25T05:57:13.524Z,14.07
2023-03-25T05:59:44.430Z,10.38
2023-03-25T06:02:18.379Z,14.45
2023-03-25T06:04:51.539Z,16.58
2023-03-25T06:07:22.453Z,13.30
2023-03-25T06:09:54.266Z,13.23
2023-03-25T06:12:27.785Z,13.35
2023-03-25T06:14:58.795Z,11.68
2023-03-25T06:17:31.154Z,14.35
2023-03-25T06:20:06.708Z,14.93
2023-03-25T06:22:40.484Z,12.57
2023-03-25T06:25:12.161Z,13.05
2023-03-25T06:27:42.730Z,13.02
2023-03-25T06:30:20.577Z,14.38
2023-03-25T06:32:55.934Z,11.15
2023-03-25T06:35:26.917Z,14.77
2023-03-25T06:37:57.373Z,16.77
2023-03-25T06:40:38.202Z,16.33
2023-03-25T06:43:09.801Z,13.25
2023-03-25T06:45:40.588Z,21.73
2023-03-25T06:48:36.124Z,14.43
2023-03-25T06:51:07.802Z,11.60
2023-03-25T06:53:38.564Z,14.07
2023-03-25T06:56:10.435Z,13.55
2023-03-25T06:58:41.857Z,12.70
2023-03-25T07:01:12.936Z,15.02
2023-03-25T07:03:44.829Z,12.13
2023-03-25T07:06:20.476Z,12.45
2023-03-25T07:08:51.376Z,13.00
2023-03-25T07:11:27.948Z,12.10
2023-03-25T07:13:58.233Z,8.80
2023-03-25T07:16:30.881Z,9.70
2023-03-25T07:19:02.887Z,11.57
2023-03-25T07:21:34.023Z,9.93
2023-03-25T07:24:04.698Z,10.73
2023-03-25T07:26:35.947Z,9.85
2023-03-25T07:29:06.598Z,13.02
2023-03-25T07:31:37.440Z,12.23
2023-03-25T07:34:09.864Z,10.02
2023-03-25T07:36:40.775Z,12.97
2023-03-25T07:39:11.413Z,10.82
2023-03-25T07:41:43.140Z,8.00
2023-03-25T07:44:24.244Z,9.57
2023-03-25T07:46:55.230Z,8.45
2023-03-25T07:49:27.203Z,8.57
2023-03-25T07:51:58.259Z,9.93
2023-03-25T07:54:29.437Z,13.07
2023-03-25T07:57:00.639Z,7.95
2023-03-25T07:59:31.261Z,9.38
2023-03-25T08:02:02.748Z,10.75
2023-03-25T08:04:34.670Z,7.78
2023-03-25T08:07:05.644Z,7.45
2023-03-25T08:09:36.268Z,8.55
2023-03-25T08:12:07.676Z,7.88
2023-03-25T08:14:38.214Z,7.30
2023-03-25T08:17:09.876Z,7.38
2023-03-25T08:19:42.443Z,6.20
2023-03-25T08:22:13.266Z,8.02
2023-03-25T08:24:43.729Z,6.68
2023-03-25T08:27:16.444Z,5.60
2023-03-25T08:29:57.394Z,5.35
2023-03-25T08:32:29.674Z,6.70
2023-03-25T08:35:01.629Z,6.07
2023-03-25T08:37:35.306Z,6.13
2023-03-25T08:40:08.929Z,6.55
2023-03-25T08:42:40.036Z,6.30
2023-03-25T08:45:12.694Z,3.53
2023-03-25T08:47:45.902Z,3.70
2023-03-25T08:50:18.014Z,5.10
2023-03-25T08:52:48.907Z,2.23
2023-03-25T08:55:19.446Z,5.53
2023-03-25T08:57:50.355Z,2.53
2023-03-25T09:00:24.451Z,2.15
2023-03-25T09:02:57.790Z,1.58
2023-03-25T09:05:29.811Z,1.83
2023-03-25T09:08:01.009Z,3.45
2023-03-25T09:10:31.716Z,1.50
2023-03-25T09:13:02.520Z,5.50
2023-03-25T09:15:33.301Z,1.38
2023-03-25T09:18:04.887Z,4.30
2023-03-25T09:20:36.806Z,1.38
2023-03-25T09:23:09.763Z,2.85
2023-03-25T09:25:40.770Z,1.50
2023-03-25T09:28:11.574Z,1.55
2023-03-25T09:30:42.124Z,0.40
2023-03-25T09:33:14.327Z,0.50
2023-03-25T09:35:47.285Z,0.40
2023-03-25T09:40:48.683Z,0.63
2023-03-25T09:43:41.699Z,0.75
2023-03-25T09:46:12.725Z,0.68
2023-03-25T09:48:47.337Z,4.38
2023-03-25T09:51:26.854Z,0.75
2023-03-25T09:54:04.259Z,0.35
2023-03-25T09:56:42.059Z,4.03
2023-03-25T09:59:19.147Z,2.45
2023-03-25T10:02:03.344Z,3.17
2023-03-25T10:05:00.926Z,0.68
2023-03-25T10:07:47.544Z,0.43
2023-03-25T10:10:27.636Z,0.13
2023-03-25T10:13:08.788Z,1.90
2023-03-25T10:15:50.465Z,0.20
2023-03-25T10:18:45.037Z,0.15
2023-03-25T10:21:22.456Z,0.38
2023-03-25T10:24:04.979Z,2.65
2023-03-25T10:26:45.336Z,0.98
2023-03-25T10:29:21.362Z,0.43
2023-03-25T10:31:54.964Z,0.30
2023-03-25T10:34:36.159Z,0.75
2023-03-25T10:37:13.002Z,0.50
2023-03-25T10:39:47.452Z,1.15
2023-03-25T10:42:27.376Z,0.73
2023-03-25T10:44:57.873Z,0.28
2023-03-25T10:47:34.578Z,1.45
2023-03-25T10:50:05.883Z,0.98
2023-03-25T10:52:36.871Z,1.13
2023-03-25T10:55:27.323Z,0.82
2023-03-25T10:57:58.722Z,1.13
2023-03-25T11:00:30.577Z,0.73
2023-03-25T11:03:02.325Z,0.98
2023-03-25T11:05:35.645Z,0.50
2023-03-25T11:08:21.993Z,0.75
2023-03-25T11:11:01.505Z,1.20
2023-03-25T11:13:33.161Z,0.50
2023-03-25T11:16:05.352Z,0.93
2023-03-25T11:18:40.563Z,0.90
2023-03-25T11:21:15.858Z,1.23
2023-03-25T11:23:50.055Z,1.23
2023-03-25T11:26:25.394Z,4.22
2023-03-25T11:29:02.418Z,1.23
2023-03-25T11:31:37.559Z,0.73
2023-03-25T11:34:18.981Z,1.73
2023-03-25T11:36:56.762Z,5.43
2023-03-25T11:39:34.312Z,1.23
2023-03-25T11:42:22.354Z,0.80
2023-03-25T11:44:55.456Z,3.40
2023-03-25T11:47:32.585Z,1.65
2023-03-25T11:50:04.216Z,0.52
2023-03-25T11:52:42.888Z,0.40
2023-03-25T11:55:21.080Z,0.60
2023-03-25T11:57:54.830Z,0.30
2023-03-25T12:00:40.355Z,0.85
2023-03-25T12:03:23.230Z,0.45
2023-03-25T12:06:05.051Z,2.15
2023-03-25T12:08:45.922Z,1.52
2023-03-25T12:11:25.046Z,0.73
2023-03-25T12:14:22.641Z,1.95
2023-03-25T12:17:05.913Z,0.80
2023-03-25T12:19:54.111Z,0.45
2023-03-25T12:22:46.516Z,0.30
2023-03-25T12:25:32.638Z,2.40
2023-03-25T12:28:30.983Z,3.75
2023-03-25T12:31:17.902Z,2.75
2023-03-25T12:34:02.872Z,5.70
2023-03-25T12:36:53.604Z,3.70
2023-03-25T12:39:43.218Z,1.67
2023-03-25T12:42:33.587Z,1.88
2023-03-25T12:45:48.811Z,2.47
2023-03-25T12:48:35.921Z,2.92
2023-03-25T12:51:16.651Z,2.65
2023-03-25T12:54:03.898Z,6.03
2023-03-25T12:56:55.811Z,5.60
2023-03-25T13:00:15.094Z,4.75
2023-03-25T13:03:40.434Z,3.45
2023-03-25T13:06:23.435Z,2.08
2023-03-25T13:09:00.640Z,2.75
2023-03-25T13:11:37.190Z,2.25
2023-03-25T13:14:16.661Z,1.65
2023-03-25T13:16:49.334Z,1.40
2023-03-25T13:19:25.652Z,1.52
2023-03-25T13:22:01.150Z,1.27
2023-03-25T13:24:40.680Z,0.50
2023-03-25T13:27:14.364Z,0.70
2023-03-25T13:29:51.365Z,0.13
2023-03-25T13:32:28.357Z,0.40
2023-03-25T13:35:07.334Z,0.40
2023-03-25T13:37:42.471Z,2.10
2023-03-25T13:40:27.955Z,1.40
2023-03-25T13:43:04.513Z,0.85
2023-03-25T13:45:49.256Z,0.82
2023-03-25T13:48:26.359Z,0.47
2023-03-25T13:51:04.180Z,0.88
2023-03-25T13:53:40.514Z,0.57
2023-03-25T13:57:00.360Z,0.30
2023-03-25T14:00:24.900Z,0.20
2023-03-25T14:04:07.158Z,0.40
2023-03-25T14:07:11.746Z,0.17
2023-03-25T14:10:03.490Z,1.60
2023-03-25T14:12:38.896Z,0.20
2023-03-25T14:15:16.250Z,0.20
2023-03-25T14:17:51.058Z,0.77
2023-03-25T14:20:27.428Z,1.63
2023-03-25T14:23:04.642Z,0.20
2023-03-25T14:25:41.225Z,0.75
2023-03-25T14:28:19.832Z,0.70
2023-03-25T14:31:10.822Z,0.20
2023-03-25T14:34:24.903Z,0.30
2023-03-25T14:40:23.810Z,0.60
2023-03-25T14:43:01.644Z,0.57
2023-03-25T14:45:51.997Z,2.85
2023-03-25T14:48:34.585Z,1.40
2023-03-25T14:51:31.511Z,1.10
2023-03-25T14:54:06.659Z,1.38
2023-03-25T14:56:43.158Z,1.48
2023-03-25T14:59:19.394Z,1.42
2023-03-25T15:01:50.326Z,0.30
2023-03-25T15:04:30.937Z,0.30
2023-03-25T15:07:04.501Z,1.73
2023-03-25T15:09:45.935Z,1.17
2023-03-25T15:12:21.335Z,1.95
2023-03-25T15:14:57.203Z,1.73
2023-03-25T15:17:45.969Z,0.20
2023-03-25T15:20:36.247Z,0.17
2023-03-25T15:23:36.586Z,0.40
2023-03-25T15:26:14.402Z,0.45
2023-03-25T15:29:32.234Z,0.13
2023-03-25T15:32:31.017Z,0.50
2023-03-25T15:35:53.488Z,0.65
2023-03-25T15:38:47.001Z,0.45
2023-03-25T15:41:53.335Z,0.60
2023-03-25T15:45:08.209Z,2.08
2023-03-25T15:50:53.158Z,0.85
2023-03-25T15:53:58.584Z,0.50
2023-03-25T15:56:34.404Z,1.23
2023-03-25T15:59:14.375Z,1.55
2023-03-25T16:01:53.137Z,3.80
2023-03-25T16:04:37.497Z,1.65
2023-03-25T16:07:11.618Z,3.13
2023-03-25T16:09:50.649Z,3.15
2023-03-25T16:12:24.690Z,2.58
2023-03-25T16:14:55.724Z,2.50
2023-03-25T16:17:35.008Z,3.95
2023-03-25T16:20:07.444Z,1.38
2023-03-25T16:22:38.962Z,1.55
2023-03-25T16:25:19.681Z,3.38
2023-03-25T16:27:58.514Z,7.28
2023-03-25T16:30:36.816Z,5.10
2023-03-25T16:33:19.652Z,3.85
2023-03-25T16:35:59.985Z,4.45
2023-03-25T16:38:32.177Z,2.75
2023-03-25T16:41:05.734Z,3.95
2023-03-25T16:43:38.381Z,6.78
2023-03-25T16:46:15.669Z,5.43
2023-03-25T16:48:53.460Z,3.30
2023-03-25T16:51:29.210Z,5.65
2023-03-25T16:54:01.237Z,5.60
2023-03-25T16:56:34.428Z,7.07
2023-03-25T16:59:08.995Z,6.45
2023-03-25T17:01:45.393Z,10.18
2023-03-25T17:04:22.305Z,4.80
2023-03-25T17:06:57.272Z,6.03
2023-03-25T17:09:34.474Z,11.35
2023-03-25T17:12:11.071Z,7.07
2023-03-25T17:14:45.429Z,6.22
2023-03-25T17:17:35.234Z,4.20
2023-03-25T17:20:16.398Z,5.82
2023-03-25T17:23:02.895Z,3.85
2023-03-25T17:25:49.855Z,3.25
2023-03-25T17:28:35.453Z,5.32
2023-03-25T17:31:29.952Z,6.68
2023-03-25T17:34:03.254Z,5.65
2023-03-25T17:36:37.987Z,15.65
2023-03-25T17:39:19.274Z,33.25
2023-03-25T17:41:55.908Z,13.70
2023-03-25T17:44:32.769Z,8.07
2023-03-25T17:47:03.744Z,7.85
2023-03-25T17:49:35.470Z,6.72
2023-03-25T17:52:09.200Z,8.63
2023-03-25T17:54:40.652Z,11.13
2023-03-25T17:57:18.101Z,12.38
2023-03-25T17:59:51.150Z,11.27
2023-03-25T18:02:22.044Z,10.70
2023-03-25T18:04:52.577Z,11.40
2023-03-25T18:07:24.909Z,12.95
2023-03-25T18:09:55.788Z,15.18
2023-03-25T18:12:27.331Z,13.35
2023-03-25T18:14:57.793Z,15.25
2023-03-25T18:17:28.787Z,19.10
2023-03-25T18:19:59.422Z,22.52
2023-03-25T18:22:32.102Z,17.88
2023-03-25T18:25:03.021Z,22.77
2023-03-25T18:27:43.232Z,20.67
2023-03-25T18:30:25.926Z,23.65
2023-03-25T18:32:56.876Z,26.83
2023-03-25T18:35:27.392Z,21.38
2023-03-25T18:37:59.941Z,18.77
2023-03-25T18:40:36.222Z,13.63
2023-03-25T18:43:07.268Z,14.45
2023-03-25T18:45:38.698Z,16.38
2023-03-25T18:48:12.826Z,6.85
2023-03-25T18:50:50.493Z,4.43
2023-03-25T18:53:25.850Z,6.50
2023-03-25T18:55:59.966Z,5.95
2023-03-25T18:58:33.012Z,4.50
2023-03-25T19:01:06.302Z,3.43
2023-03-25T19:03:39.809Z,3.53
2023-03-25T19:08:45.794Z,4.00
2023-03-25T19:13:54.052Z,2.40
2023-03-25T19:16:24.908Z,1.50
2023-03-25T19:18:55.916Z,1.65
2023-03-25T19:21:26.606Z,0.32
2023-03-25T19:23:58.974Z,2.67
2023-03-25T19:26:29.808Z,1.98
2023-03-25T19:29:01.040Z,1.63
2023-03-25T19:31:32.181Z,2.40
2023-03-25T19:34:03.772Z,2.05
2023-03-25T19:36:35.254Z,1.40
2023-03-25T19:39:09.056Z,1.75
2023-03-25T19:41:42.930Z,3.17
2023-03-25T19:44:14.616Z,3.13
2023-03-25T19:46:45.221Z,3.60
2023-03-25T19:49:25.909Z,3.20
2023-03-25T19:51:59.750Z,3.30
2023-03-25T19:54:32.289Z,2.40
2023-03-25T19:57:03.722Z,3.55
2023-03-25T19:59:35.022Z,4.35
2023-03-25T20:02:07.270Z,3.42
2023-03-25T20:04:38.486Z,1.73
2023-03-25T20:07:09.199Z,5.35
2023-03-25T20:09:41.975Z,3.20
2023-03-25T20:12:12.482Z,4.45
2023-03-25T20:14:44.078Z,7.53
2023-03-25T20:17:14.812Z,5.50
2023-03-25T20:19:46.114Z,6.18
2023-03-25T20:24:55.613Z,6.45
2023-03-25T20:27:26.041Z,8.43
2023-03-25T20:29:57.098Z,6.85
2023-03-25T20:32:37.726Z,3.83
2023-03-25T20:37:46.039Z,7.50
2023-03-25T20:40:27.753Z,6.13
2023-03-25T20:43:01.559Z,6.30
2023-03-25T20:45:33.213Z,8.73
2023-03-25T20:48:06.035Z,7.65
2023-03-25T20:50:37.493Z,8.27
2023-03-25T20:53:09.396Z,10.05
2023-03-25T20:55:41.903Z,13.02
2023-03-25T20:58:12.887Z,8.15
2023-03-25T21:00:45.120Z,8.15
2023-03-25T21:03:16.545Z,10.52
2023-03-25T21:05:48.086Z,6.55
2023-03-25T21:08:18.864Z,5.13
2023-03-25T21:10:51.090Z,4.60
2023-03-25T21:13:21.744Z,5.18
2023-03-25T21:15:56.102Z,4.28
2023-03-25T21:18:29.241Z,4.53
2023-03-25T21:21:02.962Z,4.90
2023-03-25T21:23:33.891Z,9.93
2023-03-25T21:26:09.805Z,7.45
2023-03-25T21:28:41.105Z,7.68
2023-03-25T21:31:17.206Z,6.95
2023-03-25T21:33:50.785Z,4.60
2023-03-25T21:36:24.817Z,3.95
2023-03-25T21:38:58.414Z,4.25
2023-03-25T21:41:31.916Z,6.97
2023-03-25T21:44:02.539Z,4.28
2023-03-25T21:46:34.160Z,4.95
2023-03-25T21:49:04.762Z,4.85
2023-03-25T21:51:44.282Z,4.57
2023-03-25T21:54:15.707Z,6.03
2023-03-25T21:56:52.059Z,5.40
2023-03-25T21:59:23.526Z,7.32
2023-03-25T22:01:54.522Z,6.57
2023-03-25T22:04:25.988Z,9.90
2023-03-25T22:06:58.050Z,7.53
2023-03-25T22:09:28.741Z,8.60
2023-03-25T22:12:01.402Z,7.05
2023-03-25T22:14:32.018Z,10.27
2023-03-25T22:17:02.972Z,9.68
2023-03-25T22:19:33.833Z,6.57
2023-03-25T22:22:04.668Z,7.78
2023-03-25T22:24:35.110Z,7.25
2023-03-25T22:27:07.275Z,10.82
2023-03-25T22:29:38.190Z,7.10
2023-03-25T22:32:09.011Z,7.85
2023-03-25T22:34:40.228Z,10.85
2023-03-25T22:37:11.044Z,11.80
2023-03-25T22:39:41.748Z,6.20
2023-03-25T22:42:14.341Z,8.40
2023-03-25T22:44:44.912Z,10.85
2023-03-25T22:47:15.650Z,8.95
2023-03-25T22:49:46.144Z,9.95
2023-03-25T22:52:16.857Z,8.65
2023-03-25T22:54:47.497Z,11.77
2023-03-25T22:57:20.222Z,9.35
2023-03-25T22:59:52.498Z,11.23
2023-03-25T23:02:23.405Z,12.57
2023-03-25T23:04:54.025Z,11.38
2023-03-25T23:07:25.112Z,8.77
2023-03-25T23:09:55.571Z,9.48
2023-03-25T23:12:28.771Z,10.02
2023-03-25T23:14:59.354Z,11.27
2023-03-25T23:17:30.223Z,9.80
2023-03-25T23:20:00.720Z,9.13
2023-03-25T23:22:31.717Z,7.70
2023-03-25T23:25:04.638Z,5.63
2023-03-25T23:27:37.389Z,6.70
2023-03-25T23:30:10.117Z,7.00
2023-03-25T23:32:42.147Z,9.63
2023-03-25T23:35:12.640Z,6.85
2023-03-25T23:37:43.735Z,9.07
2023-03-25T23:40:14.563Z,5.05
2023-03-25T23:42:46.985Z,5.40
2023-03-25T23:45:17.612Z,5.88
2023-03-25T23:47:49.303Z,3.83
2023-03-25T23:50:19.980Z,5.53
2023-03-25T23:52:50.878Z,2.47
2023-03-25T23:55:23.600Z,6.30
2023-03-25T23:57:56.637Z,5.85
